sensor_id;sensor_type;location;lat;lon;timestamp;P1;durP1;ratioP1;P2;durP2;ratioP2
21158;SDS011;10737;45.436;4.390;2022-12-24T00:04:59;7.03;;;6.40;;
21158;SDS011;10737;45.436;4.390;2022-12-24T00:10:05;7.57;;;6.75;;
21158;SDS011;10737;45.436;4.390;2022-12-24T00:15:08;7.25;;;6.63;;
21158;SDS011;10737;45.436;4.390;2022-12-24T00:20:12;13.07;;;11.90;;
21158;SDS011;10737;45.436;4.390;2022-12-24T00:25:17;13.43;;;12.07;;
21158;SDS011;10737;45.436;4.390;2022-12-24T00:30:21;9.35;;;8.55;;
21158;SDS011;10737;45.436;4.390;2022-12-24T00:35:24;7.70;;;6.90;;
21158;SDS011;10737;45.436;4.390;2022-12-24T00:40:30;5.63;;;5.15;;
21158;SDS011;10737;45.436;4.390;2022-12-24T00:45:33;7.03;;;5.55;;
21158;SDS011;10737;45.436;4.390;2022-12-24T00:50:36;5.93;;;5.53;;
21158;SDS011;10737;45.436;4.390;2022-12-24T00:55:41;6.00;;;5.60;;
21158;SDS011;10737;45.436;4.390;2022-12-24T01:00:44;3.97;;;3.78;;
21158;SDS011;10737;45.436;4.390;2022-12-24T01:05:47;4.82;;;4.53;;
21158;SDS011;10737;45.436;4.390;2022-12-24T01:10:54;5.15;;;4.85;;
21158;SDS011;10737;45.436;4.390;2022-12-24T01:15:58;5.20;;;4.90;;
21158;SDS011;10737;45.436;4.390;2022-12-24T01:21:02;5.57;;;5.28;;
21158;SDS011;10737;45.436;4.390;2022-12-24T01:26:08;8.32;;;7.53;;
21158;SDS011;10737;45.436;4.390;2022-12-24T01:31:13;7.78;;;7.07;;
21158;SDS011;10737;45.436;4.390;2022-12-24T01:36:17;7.80;;;7.20;;
21158;SDS011;10737;45.436;4.390;2022-12-24T01:41:22;8.93;;;8.10;;
21158;SDS011;10737;45.436;4.390;2022-12-24T01:46:43;7.85;;;7.25;;
21158;SDS011;10737;45.436;4.390;2022-12-24T01:51:47;8.35;;;7.65;;
21158;SDS011;10737;45.436;4.390;2022-12-24T01:56:52;8.35;;;7.60;;
21158;SDS011;10737;45.436;4.390;2022-12-24T02:01:56;7.90;;;7.20;;
21158;SDS011;10737;45.436;4.390;2022-12-24T02:07:00;10.43;;;9.13;;
21158;SDS011;10737;45.436;4.390;2022-12-24T02:12:05;9.63;;;8.68;;
21158;SDS011;10737;45.436;4.390;2022-12-24T02:17:12;9.82;;;8.82;;
21158;SDS011;10737;45.436;4.390;2022-12-24T02:22:19;9.20;;;8.10;;
21158;SDS011;10737;45.436;4.390;2022-12-24T02:27:38;9.02;;;8.32;;
21158;SDS011;10737;45.436;4.390;2022-12-24T02:32:50;9.65;;;8.88;;
21158;SDS011;10737;45.436;4.390;2022-12-24T02:37:56;9.70;;;8.77;;
21158;SDS011;10737;45.436;4.390;2022-12-24T02:43:02;9.30;;;8.50;;
21158;SDS011;10737;45.436;4.390;2022-12-24T02:48:08;9.13;;;8.15;;
21158;SDS011;10737;45.436;4.390;2022-12-24T02:53:12;9.25;;;8.48;;
21158;SDS011;10737;45.436;4.390;2022-12-24T02:58:20;9.80;;;9.02;;
21158;SDS011;10737;45.436;4.390;2022-12-24T03:03:30;10.00;;;9.10;;
21158;SDS011;10737;45.436;4.390;2022-12-24T03:08:37;10.23;;;9.35;;
21158;SDS011;10737;45.436;4.390;2022-12-24T03:13:44;10.95;;;9.85;;
21158;SDS011;10737;45.436;4.390;2022-12-24T03:18:50;10.75;;;9.95;;
21158;SDS011;10737;45.436;4.390;2022-12-24T03:23:54;9.85;;;8.90;;
21158;SDS011;10737;45.436;4.390;2022-12-24T03:28:58;9.45;;;8.75;;
21158;SDS011;10737;45.436;4.390;2022-12-24T03:34:03;10.63;;;9.73;;
21158;SDS011;10737;45.436;4.390;2022-12-24T03:39:06;8.68;;;8.07;;
21158;SDS011;10737;45.436;4.390;2022-12-24T03:44:10;11.43;;;10.23;;
21158;SDS011;10737;45.436;4.390;2022-12-24T03:49:14;9.45;;;8.65;;
21158;SDS011;10737;45.436;4.390;2022-12-24T03:54:18;10.15;;;9.32;;
21158;SDS011;10737;45.436;4.390;2022-12-24T03:59:21;9.63;;;8.73;;
21158;SDS011;10737;45.436;4.390;2022-12-24T04:04:26;9.07;;;8.38;;
21158;SDS011;10737;45.436;4.390;2022-12-24T04:09:29;10.80;;;9.90;;
21158;SDS011;10737;45.436;4.390;2022-12-24T04:14:32;9.50;;;8.52;;
21158;SDS011;10737;45.436;4.390;2022-12-24T04:19:37;8.23;;;7.63;;
21158;SDS011;10737;45.436;4.390;2022-12-24T04:24:41;7.03;;;6.47;;
21158;SDS011;10737;45.436;4.390;2022-12-24T04:29:44;5.53;;;5.22;;
21158;SDS011;10737;45.436;4.390;2022-12-24T04:34:49;5.80;;;5.32;;
21158;SDS011;10737;45.436;4.390;2022-12-24T04:39:52;5.95;;;5.60;;
21158;SDS011;10737;45.436;4.390;2022-12-24T04:44:55;6.35;;;5.97;;
21158;SDS011;10737;45.436;4.390;2022-12-24T04:50:00;5.85;;;5.55;;
21158;SDS011;10737;45.436;4.390;2022-12-24T04:55:03;6.40;;;6.05;;
21158;SDS011;10737;45.436;4.390;2022-12-24T05:00:07;12.70;;;11.43;;
21158;SDS011;10737;45.436;4.390;2022-12-24T05:05:12;16.05;;;14.55;;
21158;SDS011;10737;45.436;4.390;2022-12-24T05:10:15;19.73;;;17.20;;
21158;SDS011;10737;45.436;4.390;2022-12-24T05:15:18;31.60;;;20.70;;
21158;SDS011;10737;45.436;4.390;2022-12-24T05:20:23;20.00;;;17.10;;
21158;SDS011;10737;45.436;4.390;2022-12-24T05:25:27;31.70;;;20.67;;
21158;SDS011;10737;45.436;4.390;2022-12-24T05:30:48;18.60;;;16.52;;
21158;SDS011;10737;45.436;4.390;2022-12-24T05:35:53;17.58;;;15.98;;
21158;SDS011;10737;45.436;4.390;2022-12-24T05:40:56;18.60;;;16.83;;
21158;SDS011;10737;45.436;4.390;2022-12-24T05:45:59;9.15;;;8.45;;
21158;SDS011;10737;45.436;4.390;2022-12-24T05:51:04;6.90;;;6.40;;
21158;SDS011;10737;45.436;4.390;2022-12-24T05:56:08;5.22;;;4.88;;
21158;SDS011;10737;45.436;4.390;2022-12-24T06:01:12;4.95;;;4.75;;
21158;SDS011;10737;45.436;4.390;2022-12-24T06:06:18;4.45;;;4.07;;
21158;SDS011;10737;45.436;4.390;2022-12-24T06:11:22;5.07;;;4.68;;
21158;SDS011;10737;45.436;4.390;2022-12-24T06:16:26;4.80;;;4.57;;
21158;SDS011;10737;45.436;4.390;2022-12-24T06:21:31;4.85;;;4.55;;
21158;SDS011;10737;45.436;4.390;2022-12-24T06:26:34;4.40;;;4.20;;
21158;SDS011;10737;45.436;4.390;2022-12-24T06:31:37;4.80;;;4.50;;
21158;SDS011;10737;45.436;4.390;2022-12-24T06:36:42;4.65;;;4.45;;
21158;SDS011;10737;45.436;4.390;2022-12-24T06:41:45;4.50;;;4.30;;
21158;SDS011;10737;45.436;4.390;2022-12-24T06:46:48;4.30;;;4.10;;
21158;SDS011;10737;45.436;4.390;2022-12-24T06:51:54;4.40;;;4.07;;
21158;SDS011;10737;45.436;4.390;2022-12-24T06:56:57;5.05;;;4.65;;
21158;SDS011;10737;45.436;4.390;2022-12-24T07:02:00;5.20;;;5.00;;
21158;SDS011;10737;45.436;4.390;2022-12-24T07:07:05;4.68;;;4.38;;
21158;SDS011;10737;45.436;4.390;2022-12-24T07:12:08;4.68;;;4.38;;
21158;SDS011;10737;45.436;4.390;2022-12-24T07:17:12;4.75;;;4.45;;
21158;SDS011;10737;45.436;4.390;2022-12-24T07:22:16;4.38;;;4.18;;
21158;SDS011;10737;45.436;4.390;2022-12-24T07:27:20;4.40;;;4.10;;
21158;SDS011;10737;45.436;4.390;2022-12-24T07:32:23;5.00;;;4.70;;
21158;SDS011;10737;45.436;4.390;2022-12-24T07:37:28;6.88;;;6.28;;
21158;SDS011;10737;45.436;4.390;2022-12-24T07:42:31;6.32;;;5.72;;
21158;SDS011;10737;45.436;4.390;2022-12-24T07:47:34;5.72;;;5.32;;
21158;SDS011;10737;45.436;4.390;2022-12-24T07:52:39;5.15;;;4.72;;
21158;SDS011;10737;45.436;4.390;2022-12-24T07:57:42;4.65;;;4.22;;
21158;SDS011;10737;45.436;4.390;2022-12-24T08:02:45;5.05;;;4.65;;
21158;SDS011;10737;45.436;4.390;2022-12-24T08:07:50;11.55;;;10.45;;
21158;SDS011;10737;45.436;4.390;2022-12-24T08:12:53;4.88;;;4.57;;
21158;SDS011;10737;45.436;4.390;2022-12-24T08:17:56;5.15;;;4.65;;
21158;SDS011;10737;45.436;4.390;2022-12-24T08:23:01;5.05;;;4.50;;
21158;SDS011;10737;45.436;4.390;2022-12-24T08:28:04;4.18;;;3.63;;
21158;SDS011;10737;45.436;4.390;2022-12-24T08:33:08;6.68;;;6.15;;
21158;SDS011;10737;45.436;4.390;2022-12-24T08:38:13;6.35;;;5.75;;
21158;SDS011;10737;45.436;4.390;2022-12-24T08:43:16;6.78;;;6.18;;
21158;SDS011;10737;45.436;4.390;2022-12-24T08:48:19;6.15;;;5.13;;
21158;SDS011;10737;45.436;4.390;2022-12-24T08:53:24;5.95;;;5.15;;
21158;SDS011;10737;45.436;4.390;2022-12-24T08:58:28;5.65;;;4.90;;
21158;SDS011;10737;45.436;4.390;2022-12-24T09:03:31;11.55;;;5.57;;
21158;SDS011;10737;45.436;4.390;2022-12-24T09:08:36;5.15;;;4.65;;
21158;SDS011;10737;45.436;4.390;2022-12-24T09:13:39;10.32;;;5.85;;
21158;SDS011;10737;45.436;4.390;2022-12-24T09:18:43;4.10;;;3.80;;
21158;SDS011;10737;45.436;4.390;2022-12-24T09:23:48;4.97;;;4.10;;
21158;SDS011;10737;45.436;4.390;2022-12-24T09:28:51;4.53;;;4.00;;
21158;SDS011;10737;45.436;4.390;2022-12-24T09:33:56;4.05;;;3.83;;
21158;SDS011;10737;45.436;4.390;2022-12-24T09:39:01;10.75;;;7.70;;
21158;SDS011;10737;45.436;4.390;2022-12-24T09:44:07;3.85;;;3.58;;
21158;SDS011;10737;45.436;4.390;2022-12-24T09:49:14;4.22;;;3.83;;
21158;SDS011;10737;45.436;4.390;2022-12-24T09:54:21;9.32;;;5.82;;
21158;SDS011;10737;45.436;4.390;2022-12-24T09:59:28;12.82;;;5.05;;
21158;SDS011;10737;45.436;4.390;2022-12-24T10:04:35;5.18;;;4.57;;
21158;SDS011;10737;45.436;4.390;2022-12-24T10:09:41;6.88;;;6.28;;
21158;SDS011;10737;45.436;4.390;2022-12-24T10:14:53;10.18;;;7.32;;
21158;SDS011;10737;45.436;4.390;2022-12-24T10:19:59;5.43;;;4.80;;
21158;SDS011;10737;45.436;4.390;2022-12-24T10:25:10;10.88;;;7.55;;
21158;SDS011;10737;45.436;4.390;2022-12-24T10:30:16;16.15;;;11.15;;
21158;SDS011;10737;45.436;4.390;2022-12-24T10:35:21;5.50;;;5.00;;
21158;SDS011;10737;45.436;4.390;2022-12-24T10:40:29;5.88;;;5.03;;
21158;SDS011;10737;45.436;4.390;2022-12-24T10:45:36;8.45;;;7.65;;
21158;SDS011;10737;45.436;4.390;2022-12-24T10:50:42;8.23;;;5.38;;
21158;SDS011;10737;45.436;4.390;2022-12-24T10:56:01;6.43;;;5.75;;
21158;SDS011;10737;45.436;4.390;2022-12-24T11:01:06;7.63;;;6.93;;
21158;SDS011;10737;45.436;4.390;2022-12-24T11:06:11;11.50;;;9.23;;
21158;SDS011;10737;45.436;4.390;2022-12-24T11:11:16;4.55;;;4.25;;
21158;SDS011;10737;45.436;4.390;2022-12-24T11:16:22;10.85;;;8.35;;
21158;SDS011;10737;45.436;4.390;2022-12-24T11:21:28;7.47;;;5.40;;
21158;SDS011;10737;45.436;4.390;2022-12-24T11:26:33;5.45;;;4.95;;
21158;SDS011;10737;45.436;4.390;2022-12-24T11:31:37;25.38;;;18.92;;
21158;SDS011;10737;45.436;4.390;2022-12-24T11:36:40;7.30;;;6.55;;
21158;SDS011;10737;45.436;4.390;2022-12-24T11:41:45;5.93;;;4.55;;
21158;SDS011;10737;45.436;4.390;2022-12-24T11:46:48;5.40;;;5.00;;
21158;SDS011;10737;45.436;4.390;2022-12-24T11:51:59;6.28;;;4.80;;
21158;SDS011;10737;45.436;4.390;2022-12-24T11:57:07;7.07;;;5.80;;
21158;SDS011;10737;45.436;4.390;2022-12-24T12:02:15;10.15;;;7.95;;
21158;SDS011;10737;45.436;4.390;2022-12-24T12:07:21;15.15;;;11.13;;
21158;SDS011;10737;45.436;4.390;2022-12-24T12:12:29;29.55;;;19.83;;
21158;SDS011;10737;45.436;4.390;2022-12-24T12:17:34;7.82;;;7.03;;
21158;SDS011;10737;45.436;4.390;2022-12-24T12:22:39;13.23;;;11.07;;
21158;SDS011;10737;45.436;4.390;2022-12-24T12:27:46;7.82;;;6.80;;
21158;SDS011;10737;45.436;4.390;2022-12-24T12:32:54;149.55;;;99.03;;
21158;SDS011;10737;45.436;4.390;2022-12-24T12:37:59;41.88;;;32.95;;
21158;SDS011;10737;45.436;4.390;2022-12-24T12:43:06;54.35;;;37.30;;
21158;SDS011;10737;45.436;4.390;2022-12-24T12:48:20;6.20;;;5.70;;
21158;SDS011;10737;45.436;4.390;2022-12-24T12:53:40;6.65;;;4.65;;
21158;SDS011;10737;45.436;4.390;2022-12-24T12:58:48;63.13;;;41.22;;
21158;SDS011;10737;45.436;4.390;2022-12-24T13:04:09;9.93;;;7.75;;
21158;SDS011;10737;45.436;4.390;2022-12-24T13:09:24;19.33;;;16.88;;
21158;SDS011;10737;45.436;4.390;2022-12-24T13:25:25;17.42;;;13.30;;
21158;SDS011;10737;45.436;4.390;2022-12-24T13:30:33;26.10;;;19.45;;
21158;SDS011;10737;45.436;4.390;2022-12-24T13:35:37;10.77;;;6.13;;
21158;SDS011;10737;45.436;4.390;2022-12-24T13:40:42;4.20;;;3.80;;
21158;SDS011;10737;45.436;4.390;2022-12-24T13:45:46;17.08;;;11.98;;
21158;SDS011;10737;45.436;4.390;2022-12-24T13:50:50;15.77;;;11.48;;
21158;SDS011;10737;45.436;4.390;2022-12-24T13:56:05;9.18;;;8.25;;
21158;SDS011;10737;45.436;4.390;2022-12-24T14:01:09;20.27;;;15.02;;
21158;SDS011;10737;45.436;4.390;2022-12-24T14:06:19;19.20;;;12.90;;
21158;SDS011;10737;45.436;4.390;2022-12-24T14:11:25;23.77;;;18.02;;
21158;SDS011;10737;45.436;4.390;2022-12-24T14:16:39;9.50;;;7.50;;
21158;SDS011;10737;45.436;4.390;2022-12-24T14:21:48;18.30;;;15.07;;
21158;SDS011;10737;45.436;4.390;2022-12-24T14:26:56;30.83;;;23.80;;
21158;SDS011;10737;45.436;4.390;2022-12-24T14:32:11;18.75;;;12.10;;
21158;SDS011;10737;45.436;4.390;2022-12-24T14:37:15;15.38;;;11.85;;
21158;SDS011;10737;45.436;4.390;2022-12-24T14:42:24;11.90;;;10.18;;
21158;SDS011;10737;45.436;4.390;2022-12-24T14:47:33;11.27;;;10.15;;
21158;SDS011;10737;45.436;4.390;2022-12-24T14:52:40;10.73;;;9.82;;
21158;SDS011;10737;45.436;4.390;2022-12-24T14:58:20;13.60;;;12.13;;
21158;SDS011;10737;45.436;4.390;2022-12-24T15:03:25;14.30;;;11.32;;
21158;SDS011;10737;45.436;4.390;2022-12-24T15:08:29;14.70;;;13.30;;
21158;SDS011;10737;45.436;4.390;2022-12-24T15:13:49;13.57;;;12.27;;
21158;SDS011;10737;45.436;4.390;2022-12-24T15:18:56;20.63;;;16.20;;
21158;SDS011;10737;45.436;4.390;2022-12-24T15:24:02;21.88;;;18.55;;
21158;SDS011;10737;45.436;4.390;2022-12-24T15:29:22;22.25;;;17.00;;
21158;SDS011;10737;45.436;4.390;2022-12-24T15:34:27;36.88;;;25.80;;
21158;SDS011;10737;45.436;4.390;2022-12-24T15:39:31;42.53;;;31.80;;
21158;SDS011;10737;45.436;4.390;2022-12-24T15:44:39;18.63;;;16.17;;
21158;SDS011;10737;45.436;4.390;2022-12-24T15:49:43;30.10;;;26.88;;
21158;SDS011;10737;45.436;4.390;2022-12-24T15:54:47;16.90;;;14.82;;
21158;SDS011;10737;45.436;4.390;2022-12-24T16:00:02;39.22;;;26.60;;
21158;SDS011;10737;45.436;4.390;2022-12-24T16:05:27;26.20;;;22.50;;
21158;SDS011;10737;45.436;4.390;2022-12-24T16:11:06;31.10;;;24.55;;
21158;SDS011;10737;45.436;4.390;2022-12-24T16:22:47;31.70;;;26.05;;
21158;SDS011;10737;45.436;4.390;2022-12-24T16:27:52;36.08;;;29.80;;
21158;SDS011;10737;45.436;4.390;2022-12-24T16:32:59;43.80;;;34.95;;
21158;SDS011;10737;45.436;4.390;2022-12-24T16:38:13;37.42;;;29.15;;
21158;SDS011;10737;45.436;4.390;2022-12-24T16:43:16;37.53;;;29.52;;
21158;SDS011;10737;45.436;4.390;2022-12-24T16:48:41;43.95;;;29.75;;
21158;SDS011;10737;45.436;4.390;2022-12-24T16:53:52;41.20;;;32.10;;
21158;SDS011;10737;45.436;4.390;2022-12-24T16:58:57;42.13;;;31.02;;
21158;SDS011;10737;45.436;4.390;2022-12-24T17:04:14;37.78;;;29.67;;
21158;SDS011;10737;45.436;4.390;2022-12-24T17:09:20;43.35;;;33.45;;
21158;SDS011;10737;45.436;4.390;2022-12-24T17:14:24;47.90;;;31.17;;
21158;SDS011;10737;45.436;4.390;2022-12-24T17:19:29;45.15;;;32.92;;
21158;SDS011;10737;45.436;4.390;2022-12-24T17:24:34;43.60;;;34.35;;
21158;SDS011;10737;45.436;4.390;2022-12-24T17:29:40;40.47;;;30.83;;
21158;SDS011;10737;45.436;4.390;2022-12-24T17:34:58;47.70;;;36.15;;
21158;SDS011;10737;45.436;4.390;2022-12-24T17:40:18;45.80;;;36.20;;
21158;SDS011;10737;45.436;4.390;2022-12-24T17:45:31;45.05;;;34.03;;
21158;SDS011;10737;45.436;4.390;2022-12-24T17:50:42;37.72;;;29.30;;
21158;SDS011;10737;45.436;4.390;2022-12-24T17:56:03;50.33;;;39.47;;
21158;SDS011;10737;45.436;4.390;2022-12-24T18:01:23;40.22;;;30.92;;
21158;SDS011;10737;45.436;4.390;2022-12-24T18:06:37;52.83;;;39.90;;
21158;SDS011;10737;45.436;4.390;2022-12-24T18:11:54;44.17;;;30.48;;
21158;SDS011;10737;45.436;4.390;2022-12-24T18:16:58;41.85;;;34.30;;
21158;SDS011;10737;45.436;4.390;2022-12-24T18:22:02;45.38;;;31.13;;
21158;SDS011;10737;45.436;4.390;2022-12-24T18:38:05;42.63;;;30.30;;
21158;SDS011;10737;45.436;4.390;2022-12-24T18:43:13;40.88;;;29.30;;
21158;SDS011;10737;45.436;4.390;2022-12-24T18:48:16;41.20;;;29.42;;
21158;SDS011;10737;45.436;4.390;2022-12-24T18:53:37;40.60;;;29.85;;
21158;SDS011;10737;45.436;4.390;2022-12-24T18:58:58;35.53;;;25.80;;
21158;SDS011;10737;45.436;4.390;2022-12-24T19:04:07;33.88;;;25.77;;
21158;SDS011;10737;45.436;4.390;2022-12-24T19:09:25;39.72;;;29.00;;
21158;SDS011;10737;45.436;4.390;2022-12-24T19:14:29;33.95;;;27.27;;
21158;SDS011;10737;45.436;4.390;2022-12-24T19:19:33;35.30;;;26.05;;
21158;SDS011;10737;45.436;4.390;2022-12-24T19:30:01;32.05;;;25.63;;
21158;SDS011;10737;45.436;4.390;2022-12-24T19:35:18;23.27;;;19.35;;
21158;SDS011;10737;45.436;4.390;2022-12-24T19:40:22;27.52;;;21.70;;
21158;SDS011;10737;45.436;4.390;2022-12-24T19:45:28;24.88;;;19.98;;
21158;SDS011;10737;45.436;4.390;2022-12-24T19:50:32;27.17;;;21.48;;
21158;SDS011;10737;45.436;4.390;2022-12-24T19:55:35;32.28;;;24.95;;
21158;SDS011;10737;45.436;4.390;2022-12-24T20:00:44;35.33;;;26.40;;
21158;SDS011;10737;45.436;4.390;2022-12-24T20:05:47;40.40;;;27.75;;
21158;SDS011;10737;45.436;4.390;2022-12-24T20:10:51;35.35;;;25.90;;
21158;SDS011;10737;45.436;4.390;2022-12-24T20:16:15;37.13;;;26.88;;
21158;SDS011;10737;45.436;4.390;2022-12-24T20:21:27;25.63;;;21.80;;
21158;SDS011;10737;45.436;4.390;2022-12-24T20:26:31;21.48;;;18.90;;
21158;SDS011;10737;45.436;4.390;2022-12-24T20:31:52;20.75;;;18.23;;
21158;SDS011;10737;45.436;4.390;2022-12-24T20:37:09;12.95;;;11.65;;
21158;SDS011;10737;45.436;4.390;2022-12-24T20:42:16;11.60;;;10.50;;
21158;SDS011;10737;45.436;4.390;2022-12-24T20:47:23;11.40;;;10.27;;
21158;SDS011;10737;45.436;4.390;2022-12-24T20:52:29;12.23;;;10.95;;
21158;SDS011;10737;45.436;4.390;2022-12-24T20:57:35;12.18;;;10.98;;
21158;SDS011;10737;45.436;4.390;2022-12-24T21:02:43;11.45;;;10.40;;
21158;SDS011;10737;45.436;4.390;2022-12-24T21:07:48;15.27;;;13.27;;
21158;SDS011;10737;45.436;4.390;2022-12-24T21:12:52;14.40;;;12.90;;
21158;SDS011;10737;45.436;4.390;2022-12-24T21:18:03;12.35;;;11.15;;
21158;SDS011;10737;45.436;4.390;2022-12-24T21:23:14;30.98;;;25.23;;
21158;SDS011;10737;45.436;4.390;2022-12-24T21:28:25;22.30;;;20.00;;
21158;SDS011;10737;45.436;4.390;2022-12-24T21:33:38;21.90;;;19.40;;
21158;SDS011;10737;45.436;4.390;2022-12-24T21:38:44;21.00;;;18.73;;
21158;SDS011;10737;45.436;4.390;2022-12-24T21:44:04;20.92;;;18.73;;
21158;SDS011;10737;45.436;4.390;2022-12-24T21:49:22;20.67;;;18.42;;
21158;SDS011;10737;45.436;4.390;2022-12-24T21:55:06;20.42;;;18.10;;
21158;SDS011;10737;45.436;4.390;2022-12-24T22:00:22;23.25;;;20.77;;
21158;SDS011;10737;45.436;4.390;2022-12-24T22:05:45;19.83;;;17.33;;
21158;SDS011;10737;45.436;4.390;2022-12-24T22:11:01;20.00;;;18.05;;
21158;SDS011;10737;45.436;4.390;2022-12-24T22:16:28;18.83;;;16.83;;
21158;SDS011;10737;45.436;4.390;2022-12-24T22:21:36;15.95;;;14.30;;
21158;SDS011;10737;45.436;4.390;2022-12-24T22:26:40;16.15;;;12.88;;
21158;SDS011;10737;45.436;4.390;2022-12-24T22:31:57;13.18;;;11.85;;
21158;SDS011;10737;45.436;4.390;2022-12-24T22:37:03;13.68;;;11.82;;
21158;SDS011;10737;45.436;4.390;2022-12-24T22:42:07;13.00;;;11.70;;
21158;SDS011;10737;45.436;4.390;2022-12-24T22:47:24;13.45;;;12.10;;
21158;SDS011;10737;45.436;4.390;2022-12-24T22:52:35;13.55;;;10.88;;
21158;SDS011;10737;45.436;4.390;2022-12-24T22:57:39;12.25;;;10.90;;
21158;SDS011;10737;45.436;4.390;2022-12-24T23:02:43;12.07;;;10.88;;
21158;SDS011;10737;45.436;4.390;2022-12-24T23:07:50;12.02;;;10.27;;
21158;SDS011;10737;45.436;4.390;2022-12-24T23:12:53;12.00;;;10.77;;
21158;SDS011;10737;45.436;4.390;2022-12-24T23:18:15;14.93;;;10.75;;
21158;SDS011;10737;45.436;4.390;2022-12-24T23:23:20;12.35;;;11.25;;
21158;SDS011;10737;45.436;4.390;2022-12-24T23:28:23;11.77;;;10.73;;
21158;SDS011;10737;45.436;4.390;2022-12-24T23:33:27;11.65;;;10.55;;
21158;SDS011;10737;45.436;4.390;2022-12-24T23:38:32;11.52;;;10.43;;
21158;SDS011;10737;45.436;4.390;2022-12-24T23:43:35;11.20;;;9.88;;
21158;SDS011;10737;45.436;4.390;2022-12-24T23:48:39;11.00;;;9.70;;
21158;SDS011;10737;45.436;4.390;2022-12-24T23:53:44;10.00;;;9.20;;
21158;SDS011;10737;45.436;4.390;2022-12-24T23:58:48;9.48;;;8.65;;
